HomeShort term forecast

Short term forecast

Graphical weather forecast for the next 48 hours for Montreal:

Short term forecast

This weather forecast is automatically refreshed every 3 hours.

Hourly Experimental Forecast for the next 48 hours

Overall summary: Rain until tomorrow afternoon.

 Date & Hour   Temp   Feel   Baro   Hum   Speed & Bearing   Wind Gust   Precip.%   Precip.   Visibility   Cloud cover   Conditions 
 19/10/2020 - 12:00  11.4°C  11.4°C  1024.8 hPa  85%  8.9 km/h   14.8 km/h  38%  0.05 mm/h  16.1km  100%  Possible Drizzle 
 19/10/2020 - 13:00  10.6°C  10.6°C  1024.7 hPa  88%  7.9 km/h   12.8 km/h  66%  0.49 mm/h  16.1km  100%  Light Rain 
 19/10/2020 - 14:00  10.1°C  10.1°C  1024.6 hPa  89%  7.0 km/h   10.9 km/h  76%  0.75 mm/h  15.0km  100%  Light Rain 
 19/10/2020 - 15:00  9.8°C  9.1°C  1024.8 hPa  89%  6.5 km/h   10.2 km/h  81%  1.08 mm/h  11.8km  100%  Rain 
 19/10/2020 - 16:00  9.8°C  9.2°C  1025.0 hPa  88%  6.0 km/h   9.2 km/h  81%  1.05 mm/h  12.5km  100%  Rain 
 19/10/2020 - 17:00  9.9°C  9.5°C  1025.0 hPa  87%  5.4 km/h   8.6 km/h  78%  0.76 mm/h  14.6km  100%  Light Rain 
 19/10/2020 - 18:00  9.9°C  9.9°C  1025.1 hPa  86%  4.1 km/h   6.8 km/h  73%  0.52 mm/h  14.5km  100%  Light Rain 
 19/10/2020 - 19:00  9.9°C  9.9°C  1025.1 hPa  86%  3.7 km/h   6.2 km/h  65%  0.30 mm/h  15.0km  100%  Light Rain 
 19/10/2020 - 20:00  9.8°C  9.8°C  1024.8 hPa  86%  3.2 km/h   6.6 km/h  70%  0.38 mm/h  15.0km  100%  Light Rain 
 19/10/2020 - 21:00  9.7°C  9.7°C  1024.5 hPa  87%  4.6 km/h   9.5 km/h  70%  0.48 mm/h  12.8km  100%  Light Rain 
 19/10/2020 - 22:00  9.6°C  8.8°C  1023.9 hPa  87%  6.7 km/h   12.8 km/h  76%  0.72 mm/h  11.6km  100%  Light Rain 
 19/10/2020 - 23:00  9.4°C  8.2°C  1023.2 hPa  87%  8.9 km/h   16.6 km/h  78%  0.84 mm/h  11.5km  100%  Light Rain 
 20/10/2020 - 00:00  9.4°C  7.8°C  1022.5 hPa  87%  10.4 km/h   19.8 km/h  81%  1.35 mm/h  9.5km  99%  Rain 
 20/10/2020 - 01:00  9.4°C  7.8°C  1021.9 hPa  88%  11.0 km/h   20.2 km/h  81%  1.80 mm/h  10.6km  100%  Rain 
 20/10/2020 - 02:00  9.4°C  7.6°C  1021.2 hPa  90%  11.8 km/h   21.8 km/h  84%  2.29 mm/h  10.1km  100%  Rain 
 20/10/2020 - 03:00  9.3°C  7.4°C  1020.5 hPa  91%  12.4 km/h   23.7 km/h  84%  2.14 mm/h  12.3km  100%  Rain 
 20/10/2020 - 04:00  9.1°C  7.1°C  1020.0 hPa  93%  12.7 km/h   25.4 km/h  84%  2.00 mm/h  15.9km  100%  Rain 
 20/10/2020 - 05:00  8.9°C  6.8°C  1019.5 hPa  94%  12.9 km/h   26.0 km/h  86%  1.52 mm/h  16.1km  100%  Rain 
 20/10/2020 - 06:00  8.5°C  6.4°C  1019.3 hPa  95%  12.9 km/h   24.8 km/h  88%  1.99 mm/h  15.9km  100%  Rain 
 20/10/2020 - 07:00  8.2°C  6.1°C  1019.5 hPa  96%  12.7 km/h   22.4 km/h  91%  2.20 mm/h  12.3km  100%  Rain 
 20/10/2020 - 08:00  8.1°C  6.0°C  1019.7 hPa  96%  12.3 km/h   20.2 km/h  91%  1.87 mm/h  10.8km  100%  Rain 
 20/10/2020 - 09:00  8.1°C  6.1°C  1020.1 hPa  95%  11.8 km/h   18.6 km/h  89%  1.27 mm/h  13.4km  100%  Rain 
 20/10/2020 - 10:00  8.0°C  6.1°C  1020.7 hPa  94%  10.9 km/h   17.4 km/h  87%  1.07 mm/h  16.1km  100%  Rain 
 20/10/2020 - 11:00  8.1°C  6.3°C  1021.3 hPa  92%  10.1 km/h   16.4 km/h  79%  0.68 mm/h  16.1km  100%  Light Rain 
 20/10/2020 - 12:00  8.6°C  7.1°C  1022.1 hPa  90%  9.2 km/h   15.6 km/h  46%  0.31 mm/h  16.1km  100%  Possible Light Rain 
 20/10/2020 - 13:00  9.3°C  8.1°C  1022.7 hPa  86%  8.6 km/h   14.9 km/h  18%  0.08 mm/h  16.1km  100%  Overcast 
 20/10/2020 - 14:00  10.2°C  10.2°C  1023.6 hPa  80%  8.3 km/h   14.5 km/h  4%  0.01 mm/h  16.1km  100%  Overcast 
 20/10/2020 - 15:00  10.9°C  10.9°C  1024.1 hPa  77%  8.3 km/h   14.4 km/h  0%  --  16.1km  94%  Overcast 
 20/10/2020 - 16:00  11.3°C  11.3°C  1024.6 hPa  75%  8.4 km/h   14.2 km/h  0%  --  16.1km  88%  Overcast 
 20/10/2020 - 17:00  11.2°C  11.2°C  1025.4 hPa  75%  8.1 km/h   13.2 km/h  0%  --  16.1km  83%  Mostly Cloudy 
 20/10/2020 - 18:00  10.7°C  10.7°C  1026.0 hPa  76%  6.7 km/h   9.9 km/h  0%  --  16.1km  81%  Mostly Cloudy 
 20/10/2020 - 19:00  10.0°C  9.7°C  1026.9 hPa  77%  5.1 km/h   5.9 km/h  0%  --  16.1km  82%  Mostly Cloudy 
 20/10/2020 - 20:00  9.5°C  9.5°C  1027.6 hPa  79%  4.5 km/h   4.6 km/h  0%  --  16.1km  84%  Mostly Cloudy 
 20/10/2020 - 21:00  9.0°C  8.4°C  1028.1 hPa  80%  5.8 km/h   6.9 km/h  0%  --  16.1km  86%  Mostly Cloudy 
 20/10/2020 - 22:00  8.8°C  7.6°C  1028.5 hPa  80%  8.1 km/h   11.4 km/h  0%  --  16.1km  86%  Mostly Cloudy 
 20/10/2020 - 23:00  8.5°C  6.8°C  1028.6 hPa  81%  10.1 km/h   15.7 km/h  0%  --  16.1km  92%  Overcast 
 21/10/2020 - 00:00  8.0°C  6.0°C  1028.3 hPa  82%  11.2 km/h   19.3 km/h  0%  --  16.1km  90%  Overcast 
 21/10/2020 - 01:00  7.5°C  5.3°C  1027.9 hPa  84%  12.1 km/h   22.9 km/h  0%  --  16.1km  90%  Overcast 
 21/10/2020 - 02:00  7.2°C  4.8°C  1027.5 hPa  85%  13.1 km/h   26.1 km/h  0%  --  16.1km  81%  Mostly Cloudy 
 21/10/2020 - 03:00  6.9°C  4.2°C  1026.9 hPa  86%  14.5 km/h   28.9 km/h  5%  0.10 mm/h  16.1km  86%  Mostly Cloudy 
 21/10/2020 - 04:00  6.6°C  3.6°C  1026.2 hPa  88%  16.1 km/h   31.1 km/h  31%  0.45 mm/h  16.1km  80%  Possible Light Rain 
 21/10/2020 - 05:00  6.2°C  2.9°C  1025.4 hPa  90%  17.1 km/h   32.5 km/h  44%  0.76 mm/h  14.8km  83%  Possible Light Rain 
 21/10/2020 - 06:00  5.7°C  2.3°C  1024.6 hPa  92%  17.5 km/h   33.1 km/h  42%  0.59 mm/h  14.2km  84%  Possible Light Rain 
 21/10/2020 - 07:00  5.4°C  1.9°C  1023.6 hPa  94%  17.4 km/h   33.0 km/h  41%  0.37 mm/h  14.8km  88%  Possible Light Rain 
 21/10/2020 - 08:00  5.5°C  2.1°C  1022.5 hPa  95%  16.7 km/h   32.0 km/h  49%  0.46 mm/h  15.3km  91%  Possible Light Rain 
 21/10/2020 - 09:00  5.9°C  3.0°C  1021.1 hPa  96%  14.5 km/h   28.3 km/h  71%  1.03 mm/h  14.6km  94%  Rain 
 21/10/2020 - 10:00  6.7°C  4.4°C  1019.6 hPa  95%  11.6 km/h   23.6 km/h  81%  2.41 mm/h  13.7km  98%  Rain 
 21/10/2020 - 11:00  7.8°C  5.9°C  1018.1 hPa  93%  10.5 km/h   22.9 km/h  85%  3.25 mm/h  13.8km  100%  Rain 

 

Past weather and reports

Past weatherFind in this section the past weather conditions, weather archive, graphics, reports and statistics.

Current conditions

Current weather condition for MontrealAll you need to know about the current weather conditions for Montreal. Weather data is updated every 10 minutes.

Weather forecast

Current Montreal weatherSince 2004, celinium.com website has provided accurate weather forecast for Montreal's island.